Time;durP1;ratioP1;P1;durP2;ratioP2;P2;SDS_P1;SDS_P2;PMS_P1;PMS_P2;Temp;Humidity;BMP_temperature;BMP_pressure;BME280_temperature;BME280_humidity;BME280_pressure;Samples;Min_cycle;Max_cycle;Signal;HPM_P1;HPM_P2
2021/09/08 00:00:28;;;;;;;14.33;12.93;;;;;;;18.60;64.82;101891.84;5058815;28;20471;-69
2021/09/08 00:02:54;;;;;;;12.97;11.60;;;;;;;18.74;63.91;101890.00;5058632;28;20205;-67
2021/09/08 00:05:19;;;;;;;15.60;13.50;;;;;;;18.88;64.08;101889.03;5058628;28;20209;-68
2021/09/08 00:07:45;;;;;;;15.07;13.37;;;;;;;18.75;64.35;101881.16;5058643;28;20527;-67
2021/09/08 00:10:11;;;;;;;15.57;13.97;;;;;;;18.79;64.28;101888.19;5058826;28;20269;-68
2021/09/08 00:12:37;;;;;;;16.70;13.23;;;;;;;18.97;64.15;101887.25;5058745;28;20189;-66
2021/09/08 00:15:04;;;;;;;16.13;14.20;;;;;;;19.08;63.59;101884.53;5058353;28;20447;-67
2021/09/08 00:17:29;;;;;;;15.80;14.20;;;;;;;18.83;64.43;101879.38;5057964;28;20390;-68
2021/09/08 00:19:54;;;;;;;14.00;12.50;;;;;;;18.65;64.99;101885.63;5058355;28;20420;-66
2021/09/08 00:22:20;;;;;;;14.40;12.80;;;;;;;19.11;63.64;101873.91;5057603;28;20248;-68
2021/09/08 00:24:45;;;;;;;16.27;14.77;;;;;;;18.36;66.03;101880.53;5038599;28;20194;-68
2021/09/08 00:27:10;;;;;;;16.03;13.93;;;;;;;18.43;66.05;101876.97;5038488;28;20224;-68
2021/09/08 00:29:36;;;;;;;16.30;14.70;;;;;;;18.27;66.95;101877.91;5037959;28;20178;-69
2021/09/08 00:32:02;;;;;;;17.10;13.90;;;;;;;18.32;66.71;101878.75;5038756;28;20205;-68
2021/09/08 00:34:27;;;;;;;17.30;14.87;;;;;;;18.63;65.86;101873.31;5038143;28;20190;-68
2021/09/08 00:36:52;;;;;;;15.67;13.87;;;;;;;18.54;66.33;101868.09;5038254;28;20455;-69
2021/09/08 00:39:18;;;;;;;15.50;14.00;;;;;;;18.74;65.67;101871.50;5038795;28;20180;-69
2021/09/08 00:41:43;;;;;;;14.90;13.30;;;;;;;18.19;67.19;101864.75;5038197;28;20252;-68
2021/09/08 00:44:11;;;;;;;14.80;13.27;;;;;;;18.08;68.04;101870.06;5038036;28;20173;-69
2021/09/08 00:46:38;;;;;;;15.40;13.57;;;;;;;18.26;67.34;101865.59;5038376;28;20543;-67
2021/09/08 00:49:03;;;;;;;15.30;13.63;;;;;;;18.48;66.52;101871.66;5038277;28;20503;-68
2021/09/08 00:51:29;;;;;;;16.00;14.40;;;;;;;18.73;65.53;101860.97;5038687;28;20421;-69
2021/09/08 00:53:55;;;;;;;14.93;13.37;;;;;;;18.56;65.89;101861.06;5038519;28;20205;-69
2021/09/08 00:56:21;;;;;;;15.60;14.00;;;;;;;18.79;65.04;101861.78;5037356;28;20247;-68
2021/09/08 00:58:46;;;;;;;15.60;14.03;;;;;;;18.45;65.94;101864.63;5036396;28;20505;-68
2021/09/08 01:01:12;;;;;;;15.40;11.87;;;;;;;18.54;65.89;101861.06;5038111;28;20428;-67
2021/09/08 01:03:37;;;;;;;16.00;12.60;;;;;;;18.44;65.76;101857.59;5037717;28;20213;-68
2021/09/08 01:06:02;;;;;;;15.13;12.70;;;;;;;18.55;65.56;101861.94;5037837;28;20178;-69
2021/09/08 01:08:28;;;;;;;13.53;12.13;;;;;;;18.74;64.94;101858.31;5038332;28;20174;-68
2021/09/08 01:10:53;;;;;;;18.30;13.67;;;;;;;18.80;64.53;101857.38;5037809;28;20182;-70
2021/09/08 01:13:19;;;;;;;15.33;13.70;;;;;;;18.29;65.87;101857.66;5036976;28;20320;-69
2021/09/08 01:15:59;;;;;;;15.87;13.50;;;;;;;18.56;65.09;101855.78;5037397;28;20540;-70
2021/09/08 01:18:24;;;;;;;18.90;13.23;;;;;;;18.48;65.53;101856.69;5037738;28;20282;-71
2021/09/08 01:20:50;;;;;;;16.50;14.80;;;;;;;18.40;65.85;101847.94;5037819;28;20525;-70
2021/09/08 01:23:15;;;;;;;14.13;12.73;;;;;;;18.32;66.31;101847.97;5048985;28;20292;-70
2021/09/08 01:25:40;;;;;;;15.57;13.20;;;;;;;18.09;66.75;101848.09;5060463;28;20556;-71
2021/09/08 01:28:06;;;;;;;14.57;13.00;;;;;;;18.41;65.94;101843.53;5061209;28;20207;-71
2021/09/08 01:30:31;;;;;;;15.43;13.83;;;;;;;17.96;67.52;101847.22;5058121;28;20447;-70
2021/09/08 01:33:00;;;;;;;15.70;14.20;;;;;;;18.35;66.38;101842.66;5057910;28;20418;-69
2021/09/08 01:35:25;;;;;;;14.93;13.40;;;;;;;18.09;67.32;101836.63;5057926;28;20181;-70
2021/09/08 01:37:50;;;;;;;15.67;14.07;;;;;;;18.33;66.90;101843.56;5058145;28;20432;-69
2021/09/08 01:40:17;;;;;;;18.20;14.13;;;;;;;18.19;67.20;101838.34;5058571;28;20170;-70
2021/09/08 01:42:43;;;;;;;14.83;13.10;;;;;;;18.22;67.27;101835.69;5061958;28;20255;-69
2021/09/08 01:45:14;;;;;;;15.60;13.00;;;;;;;18.21;67.38;101835.72;5054869;28;20734;-69
2021/09/08 01:47:40;;;;;;;17.60;14.57;;;;;;;17.89;68.51;101839.31;5041337;28;20469;-70
2021/09/08 01:50:07;;;;;;;15.50;14.00;;;;;;;18.05;68.46;101841.06;5041641;28;20483;-72
2021/09/08 01:52:32;;;;;;;15.17;13.67;;;;;;;17.97;68.69;101832.31;5041509;28;20428;-70
2021/09/08 01:54:58;;;;;;;15.47;13.97;;;;;;;17.64;69.66;101834.09;5042293;28;20447;-73
2021/09/08 01:57:24;;;;;;;14.70;13.30;;;;;;;17.68;69.69;101835.84;5042240;28;20201;-69
2021/09/08 01:59:49;;;;;;;14.80;13.00;;;;;;;17.62;70.19;101827.97;5041991;28;20828;-70
2021/09/08 02:02:14;;;;;;;15.50;13.93;;;;;;;17.57;69.83;101827.09;5040984;28;20263;-69
2021/09/08 02:04:40;;;;;;;15.40;13.87;;;;;;;17.73;69.40;101834.09;5040808;28;20182;-69
2021/09/08 02:07:05;;;;;;;14.77;13.23;;;;;;;17.85;69.04;101828.75;5041242;28;20479;-69
2021/09/08 02:09:30;;;;;;;14.40;12.90;;;;;;;17.85;68.43;101836.69;5041291;28;20516;-70
2021/09/08 02:11:56;;;;;;;14.37;12.53;;;;;;;17.79;69.05;101841.09;5040873;28;20170;-70
2021/09/08 02:14:21;;;;;;;18.00;13.37;;;;;;;17.72;68.84;101831.44;5040555;28;20211;-70
2021/09/08 02:16:46;;;;;;;13.40;11.57;;;;;;;17.45;69.12;101834.13;5041062;28;20253;-71
2021/09/08 02:19:12;;;;;;;12.33;11.23;;;;;;;17.18;69.22;101842.94;5040769;28;20472;-70
2021/09/08 02:21:37;;;;;;;13.27;12.07;;;;;;;17.09;69.82;101843.81;5040758;28;20285;-70
2021/09/08 02:24:03;;;;;;;13.77;12.37;;;;;;;17.40;68.42;101835.00;5054807;28;20192;-68
2021/09/08 02:26:28;;;;;;;13.37;11.80;;;;;;;17.39;68.71;101838.56;5060395;28;20182;-71
2021/09/08 02:28:53;;;;;;;13.03;11.73;;;;;;;17.47;68.37;101842.94;5060390;28;20227;-70
2021/09/08 02:31:18;;;;;;;15.20;11.63;;;;;;;17.46;68.12;101845.56;5060879;28;20473;-69
2021/09/08 02:33:44;;;;;;;12.07;10.97;;;;;;;17.42;68.23;101842.03;5060105;28;20201;-70
2021/09/08 02:36:09;;;;;;;17.60;11.50;;;;;;;17.42;67.96;101842.03;5060319;28;20177;-70
2021/09/08 02:38:35;;;;;;;13.27;11.87;;;;;;;17.66;67.32;101827.94;5060471;28;20448;-69
2021/09/08 02:41:06;;;;;;;12.17;11.00;;;;;;;17.61;67.45;101839.38;5060231;28;20252;-70
2021/09/08 02:43:31;;;;;;;12.17;11.00;;;;;;;17.68;67.32;101835.84;5059389;28;20209;-68
2021/09/08 02:45:59;;;;;;;12.67;11.40;;;;;;;17.20;67.88;101837.66;5060444;28;20405;-68
2021/09/08 02:48:24;;;;;;;12.80;11.43;;;;;;;17.48;67.65;101834.13;5060056;28;20265;-68
2021/09/08 02:50:49;;;;;;;13.23;11.93;;;;;;;17.32;68.64;101837.69;5060084;28;20510;-70
2021/09/08 02:53:14;;;;;;;13.93;12.43;;;;;;;17.23;68.61;101835.03;5060028;28;20166;-69
2021/09/08 02:55:40;;;;;;;13.30;12.00;;;;;;;16.94;69.62;101831.53;5059842;28;20199;-69
2021/09/08 02:58:06;;;;;;;13.50;12.30;;;;;;;17.15;69.13;101830.63;5059829;28;20457;-69
2021/09/08 03:00:31;;;;;;;13.20;11.90;;;;;;;17.34;68.26;101823.59;5060398;28;20261;-71
2021/09/08 03:02:57;;;;;;;13.60;12.27;;;;;;;16.78;69.96;101825.34;5059765;28;20549;-71
2021/09/08 03:05:22;;;;;;;13.10;11.80;;;;;;;17.35;68.47;101819.22;5058723;28;20185;-70
2021/09/08 03:07:47;;;;;;;12.90;11.60;;;;;;;17.31;68.25;101814.84;5059563;28;20173;-70
2021/09/08 03:10:13;;;;;;;13.93;12.30;;;;;;;17.10;68.55;101813.97;5059844;28;20225;-69
2021/09/08 03:12:38;;;;;;;15.40;11.50;;;;;;;17.62;67.29;101810.38;5059741;28;20169;-68
2021/09/08 03:15:05;;;;;;;13.13;11.77;;;;;;;17.33;67.43;101813.97;5060239;28;20233;-68
2021/09/08 03:17:30;;;;;;;12.90;11.50;;;;;;;17.00;68.31;101806.94;5062917;28;20223;-68
2021/09/08 03:19:55;;;;;;;13.07;11.77;;;;;;;16.56;70.06;101811.25;5059545;28;20448;-67
2021/09/08 03:22:21;;;;;;;13.40;12.10;;;;;;;17.17;68.30;101802.53;5059940;28;20535;-67
2021/09/08 03:24:46;;;;;;;13.50;10.53;;;;;;;17.09;68.17;101800.78;5059418;28;20181;-67
2021/09/08 03:27:11;;;;;;;14.47;11.37;;;;;;;16.73;68.71;101803.38;5059420;28;20450;-67
2021/09/08 03:29:37;;;;;;;14.23;11.00;;;;;;;17.28;67.24;101799.03;5060013;28;20512;-67
2021/09/08 03:32:03;;;;;;;12.70;11.50;;;;;;;17.32;66.82;101800.78;5059423;28;20181;-68
2021/09/08 03:34:28;;;;;;;13.23;11.90;;;;;;;16.94;67.25;101799.03;5059100;28;20190;-67
2021/09/08 03:36:53;;;;;;;12.77;11.47;;;;;;;17.07;67.04;101789.38;5059757;28;20665;-67
2021/09/08 03:39:19;;;;;;;11.97;10.80;;;;;;;17.05;67.36;101797.28;5059114;28;20178;-67
2021/09/08 03:41:44;;;;;;;12.33;11.03;;;;;;;17.10;67.60;101794.63;5058922;28;20559;-67
2021/09/08 03:44:09;;;;;;;12.87;11.60;;;;;;;17.21;66.77;101792.00;5059511;28;20212;-68
2021/09/08 03:46:35;;;;;;;12.77;11.10;;;;;;;17.23;66.68;101787.63;5059113;28;20197;-68
2021/09/08 03:49:00;;;;;;;12.70;11.50;;;;;;;17.29;66.07;101790.22;5059220;28;20435;-67
2021/09/08 03:51:25;;;;;;;10.73;9.67;;;;;;;16.92;67.90;101787.63;5059395;28;20184;-67
2021/09/08 03:53:51;;;;;;;12.30;11.10;;;;;;;17.12;66.69;101792.91;5058790;28;20530;-68
2021/09/08 03:56:16;;;;;;;13.40;11.67;;;;;;;16.98;67.31;101792.88;5058892;28;20169;-68
2021/09/08 03:58:41;;;;;;;13.60;10.80;;;;;;;17.21;66.71;101794.63;5058696;28;20291;-68
2021/09/08 04:01:06;;;;;;;12.40;11.20;;;;;;;16.97;67.47;101794.66;5047707;28;20204;-68
2021/09/08 04:03:32;;;;;;;14.40;12.57;;;;;;;16.89;67.61;101788.50;5038229;28;20213;-68
2021/09/08 04:05:57;;;;;;;15.53;12.27;;;;;;;17.13;66.86;101790.25;5039173;28;20174;-68
2021/09/08 04:08:22;;;;;;;14.53;11.63;;;;;;;16.79;68.67;101787.59;5039030;28;20185;-67
2021/09/08 04:10:48;;;;;;;14.43;12.93;;;;;;;17.13;67.49;101790.25;5039721;28;20185;-68
2021/09/08 04:13:13;;;;;;;13.33;12.03;;;;;;;17.03;67.62;101788.50;5038594;28;20193;-67
2021/09/08 04:15:38;;;;;;;14.40;11.67;;;;;;;17.03;67.57;101785.00;5038686;28;20178;-68
2021/09/08 04:18:04;;;;;;;12.90;11.67;;;;;;;17.40;66.33;101785.84;5038954;28;20175;-67
2021/09/08 04:20:29;;;;;;;12.17;10.87;;;;;;;17.03;67.39;101783.22;5038102;28;20170;-67
2021/09/08 04:22:54;;;;;;;16.70;12.83;;;;;;;17.16;66.95;101787.59;5038418;28;20205;-67
2021/09/08 04:25:20;;;;;;;12.67;11.50;;;;;;;17.02;67.94;101789.34;5038622;28;20162;-67
2021/09/08 04:27:45;;;;;;;13.90;12.60;;;;;;;17.14;67.34;101788.47;5038436;28;20265;-67
2021/09/08 04:30:11;;;;;;;13.63;12.40;;;;;;;17.09;67.80;101787.59;5038344;28;20178;-67
2021/09/08 04:32:36;;;;;;;13.77;12.47;;;;;;;17.04;68.59;101784.97;5038719;28;20173;-67
2021/09/08 04:35:01;;;;;;;14.23;12.70;;;;;;;16.89;69.15;101793.78;5038257;28;20652;-67
2021/09/08 04:37:27;;;;;;;13.87;12.40;;;;;;;16.71;69.93;101786.72;5038303;28;20276;-67
2021/09/08 04:39:52;;;;;;;13.90;12.40;;;;;;;16.88;69.64;101783.19;5038473;28;20451;-67
2021/09/08 04:42:17;;;;;;;13.70;12.40;;;;;;;16.70;70.07;101784.06;5038231;28;20216;-68
2021/09/08 04:44:43;;;;;;;12.60;11.30;;;;;;;16.68;70.06;101789.31;5037957;28;20270;-68
2021/09/08 04:47:08;;;;;;;12.70;11.50;;;;;;;16.75;70.04;101784.94;5038543;28;20489;-67
2021/09/08 04:49:33;;;;;;;14.07;12.23;;;;;;;16.77;69.33;101786.69;5038283;28;20192;-67
2021/09/08 04:51:58;;;;;;;15.23;12.50;;;;;;;16.92;69.16;101785.00;5038170;28;20502;-67
2021/09/08 04:54:24;;;;;;;13.27;11.90;;;;;;;16.39;70.96;101784.91;5038284;28;20166;-67
2021/09/08 04:56:49;;;;;;;13.80;12.40;;;;;;;16.72;69.35;101785.81;5037984;28;20178;-67
2021/09/08 04:59:14;;;;;;;15.83;13.30;;;;;;;16.50;70.52;101788.41;5038038;28;20280;-67
2021/09/08 05:01:40;;;;;;;13.73;12.00;;;;;;;16.75;69.70;101791.09;5051787;28;20166;-68
2021/09/08 05:04:05;;;;;;;14.80;12.80;;;;;;;16.91;68.66;101793.75;5039759;28;20178;-67
2021/09/08 05:06:30;;;;;;;14.53;13.03;;;;;;;16.55;69.03;101795.44;5038227;28;20417;-67
2021/09/08 05:08:56;;;;;;;13.43;12.07;;;;;;;16.97;68.21;101791.16;5038252;28;20475;-68
2021/09/08 05:11:21;;;;;;;12.73;10.90;;;;;;;16.76;68.33;101795.47;5037891;28;20174;-68
2021/09/08 05:13:47;;;;;;;12.50;11.30;;;;;;;16.72;68.93;101800.75;5037819;28;20182;-67
2021/09/08 05:16:12;;;;;;;12.50;11.20;;;;;;;16.61;69.24;101798.97;5042008;28;20177;-68
2021/09/08 05:18:37;;;;;;;13.30;12.00;;;;;;;17.12;67.33;101793.75;5041981;28;20173;-67
2021/09/08 05:21:03;;;;;;;13.33;11.80;;;;;;;16.58;68.70;101795.47;5041909;28;20225;-67
2021/09/08 05:23:28;;;;;;;13.20;11.80;;;;;;;17.22;66.49;101788.47;5042061;28;20202;-68
2021/09/08 05:25:53;;;;;;;13.33;11.70;;;;;;;16.76;67.31;101787.56;5041630;28;20471;-68
2021/09/08 05:28:20;;;;;;;14.13;12.63;;;;;;;16.53;68.46;101789.31;5041494;28;20555;-67
2021/09/08 05:30:45;;;;;;;13.53;11.97;;;;;;;16.72;67.95;101796.34;5042041;28;20221;-70
2021/09/08 05:33:11;;;;;;;11.43;10.43;;;;;;;17.09;67.30;101795.50;5041555;28;20426;-69
2021/09/08 05:35:36;;;;;;;14.20;11.90;;;;;;;16.89;68.07;101796.41;5041370;28;20494;-71
2021/09/08 05:38:02;;;;;;;13.53;12.27;;;;;;;16.86;67.75;101800.75;5041892;28;20577;-71
2021/09/08 05:40:27;;;;;;;14.43;12.60;;;;;;;17.20;66.30;101798.13;5057154;28;20185;-68
2021/09/08 05:42:52;;;;;;;12.93;11.63;;;;;;;17.54;65.38;101793.69;5052961;28;20313;-69
2021/09/08 05:45:18;;;;;;;12.30;11.00;;;;;;;18.07;63.76;101802.34;5048103;28;20202;-68
2021/09/08 05:47:43;;;;;;;16.33;11.80;;;;;;;19.42;58.87;101796.13;5060767;28;20592;-69
2021/09/08 05:50:09;;;;;;;12.63;11.40;;;;;;;19.81;57.78;101786.88;5066743;28;20228;-68
2021/09/08 05:52:34;;;;;;;12.70;11.30;;;;;;;20.25;55.29;101792.47;5077264;28;20177;-69
2021/09/08 05:54:59;;;;;;;12.30;11.10;;;;;;;20.02;55.45;101796.31;5064420;28;20188;-68
2021/09/08 05:57:24;;;;;;;12.47;11.13;;;;;;;21.31;52.49;101792.59;5072632;28;20169;-68
2021/09/08 05:59:50;;;;;;;13.03;10.07;;;;;;;21.98;49.94;101778.03;5072121;28;20203;-68
2021/09/08 06:02:15;;;;;;;12.23;11.03;;;;;;;22.08;50.66;101787.53;5071325;28;20224;-69
2021/09/08 06:04:40;;;;;;;13.40;10.93;;;;;;;22.94;48.05;101783.81;5063760;28;20189;-69
2021/09/08 06:07:06;;;;;;;12.03;10.83;;;;;;;23.21;47.36;101785.75;5075598;28;20204;-70
2021/09/08 06:09:31;;;;;;;12.10;10.70;;;;;;;23.09;47.33;101786.06;5061756;28;20268;-70
2021/09/08 06:11:57;;;;;;;12.13;10.83;;;;;;;23.28;47.53;101788.25;5058978;28;20181;-69
2021/09/08 06:14:22;;;;;;;12.40;10.87;;;;;;;24.45;45.04;101782.19;5075726;28;20181;-70
2021/09/08 06:16:48;;;;;;;11.30;10.20;;;;;;;22.88;48.31;101782.19;5063303;28;20189;-69
2021/09/08 06:19:13;;;;;;;13.00;11.70;;;;;;;24.05;45.62;101783.44;5073379;28;20189;-70
2021/09/08 06:21:38;;;;;;;16.43;11.00;;;;;;;25.11;43.72;101779.13;5070043;28;20442;-70
2021/09/08 06:24:04;;;;;;;14.10;11.47;;;;;;;25.27;42.75;101779.47;5066913;28;20597;-70
2021/09/08 06:26:30;;;;;;;12.53;10.67;;;;;;;24.61;43.90;101782.56;5060797;28;20197;-70
2021/09/08 06:28:55;;;;;;;12.57;11.30;;;;;;;24.42;44.15;101782.28;5059867;28;20220;-69
2021/09/08 06:31:20;;;;;;;12.80;11.60;;;;;;;26.64;39.74;101768.06;5069211;28;20459;-69
2021/09/08 06:33:46;;;;;;;12.30;11.20;;;;;;;25.30;42.35;101775.81;5079968;28;20177;-68
2021/09/08 06:36:11;;;;;;;12.30;11.17;;;;;;;25.17;42.00;101770.06;5079842;28;20234;-69
2021/09/08 06:38:36;;;;;;;13.30;12.10;;;;;;;26.11;41.15;101774.63;5080015;28;20550;-70
2021/09/08 06:41:03;;;;;;;12.67;11.30;;;;;;;25.74;41.51;101773.34;5080094;28;20207;-69
2021/09/08 06:43:28;;;;;;;14.37;11.47;;;;;;;27.00;38.60;101772.78;5079985;28;20566;-69
2021/09/08 06:45:54;;;;;;;11.43;10.37;;;;;;;26.37;39.92;101767.38;5079909;28;20489;-70
2021/09/08 06:48:19;;;;;;;13.70;12.30;;;;;;;25.99;41.25;101770.63;5079684;28;20204;-70
2021/09/08 06:50:44;;;;;;;12.77;11.37;;;;;;;28.29;36.66;101764.31;5067789;28;20216;-69
2021/09/08 06:53:10;;;;;;;11.77;10.67;;;;;;;27.45;37.52;101756.63;5059509;28;20285;-67
2021/09/08 06:55:35;;;;;;;11.20;10.20;;;;;;;27.42;37.76;101756.75;5058664;28;20224;-68
2021/09/08 06:58:01;;;;;;;12.53;11.23;;;;;;;28.53;36.00;101749.69;5059837;28;20226;-67
2021/09/08 07:00:26;;;;;;;12.70;10.97;;;;;;;28.53;35.97;101752.38;5059443;28;20264;-68
2021/09/08 07:02:51;;;;;;;16.80;10.43;;;;;;;27.99;36.14;101752.28;5058696;28;20213;-68
2021/09/08 07:05:17;;;;;;;12.30;11.20;;;;;;;28.36;35.75;101752.34;5058945;28;20200;-69
2021/09/08 07:07:43;;;;;;;12.60;11.33;;;;;;;28.75;35.28;101748.63;5058939;28;20177;-70
2021/09/08 07:10:09;;;;;;;12.77;11.60;;;;;;;29.03;35.18;101747.22;5059139;28;20892;-69
2021/09/08 07:12:35;;;;;;;12.03;10.80;;;;;;;29.13;34.71;101751.13;5059175;28;20235;-67
2021/09/08 07:15:00;;;;;;;12.57;11.27;;;;;;;28.28;36.21;101750.06;5059347;28;20194;-68
2021/09/08 07:17:25;;;;;;;12.57;11.47;;;;;;;28.97;35.45;101743.03;5059655;28;20165;-69
2021/09/08 07:19:51;;;;;;;13.50;10.90;;;;;;;29.19;34.42;101748.13;5058226;28;20437;-68
2021/09/08 07:22:16;;;;;;;12.20;11.00;;;;;;;28.41;35.98;101747.63;5059163;28;20205;-69
2021/09/08 07:24:42;;;;;;;12.97;10.97;;;;;;;29.54;34.11;101742.72;5059069;28;20563;-68
2021/09/08 07:27:07;;;;;;;11.37;10.37;;;;;;;30.26;32.54;101742.34;5058662;28;20287;-69
2021/09/08 07:29:33;;;;;;;11.97;10.70;;;;;;;26.18;39.19;101748.53;5059161;28;20184;-70
2021/09/08 07:31:58;;;;;;;11.80;10.63;;;;;;;28.12;36.31;101744.56;5059174;28;20235;-67
2021/09/08 07:34:24;;;;;;;12.03;10.73;;;;;;;28.92;35.20;101737.03;5058981;28;20265;-68
2021/09/08 07:36:49;;;;;;;13.03;11.70;;;;;;;28.12;36.32;101738.31;5058827;28;20443;-68
2021/09/08 07:39:15;;;;;;;11.73;10.73;;;;;;;28.98;34.98;101733.16;5057700;28;20180;-68
2021/09/08 07:41:40;;;;;;;13.23;12.03;;;;;;;27.66;36.77;101738.69;5058700;28;20181;-68
2021/09/08 07:44:06;;;;;;;15.83;12.00;;;;;;;29.05;34.42;101727.41;5058373;28;20178;-66
2021/09/08 07:46:32;;;;;;;11.57;10.20;;;;;;;28.69;35.51;101733.72;5058913;28;20268;-67
2021/09/08 07:48:57;;;;;;;12.50;11.30;;;;;;;29.73;33.63;101734.50;5058214;28;20184;-69
2021/09/08 07:51:22;;;;;;;11.77;10.67;;;;;;;28.87;35.46;101731.91;5058697;28;20591;-70
2021/09/08 07:53:48;;;;;;;11.57;10.47;;;;;;;28.44;35.51;101738.56;5058714;28;20173;-66
2021/09/08 07:56:13;;;;;;;13.17;10.70;;;;;;;29.80;33.30;101729.66;5058469;28;20291;-66
2021/09/08 07:58:38;;;;;;;11.63;10.40;;;;;;;28.28;36.03;101736.66;5057958;28;20229;-66
2021/09/08 08:01:04;;;;;;;11.70;10.60;;;;;;;28.85;35.24;101731.13;5055188;28;20177;-67
2021/09/08 08:03:29;;;;;;;11.40;10.30;;;;;;;30.17;32.79;101732.94;5058458;28;20331;-70
2021/09/08 08:05:54;;;;;;;11.90;10.77;;;;;;;30.10;33.39;101717.28;5058276;28;20177;-68
2021/09/08 08:08:20;;;;;;;11.40;10.03;;;;;;;29.44;34.25;101716.44;5058360;28;20535;-66
2021/09/08 08:10:46;;;;;;;11.83;10.70;;;;;;;30.83;31.79;101720.16;5058359;28;20185;-67
2021/09/08 08:13:11;;;;;;;12.97;11.20;;;;;;;29.97;33.74;101717.09;5058150;28;20466;-67
2021/09/08 08:15:37;;;;;;;12.33;11.10;;;;;;;28.86;34.95;101724.81;5057549;28;20209;-68
2021/09/08 08:18:03;;;;;;;13.47;10.37;;;;;;;29.83;33.56;101716.03;5045497;28;20197;-68
2021/09/08 08:20:28;;;;;;;10.93;10.03;;;;;;;30.56;32.57;101717.31;5038683;28;20174;-67
2021/09/08 08:22:54;;;;;;;11.33;10.20;;;;;;;29.75;34.13;101715.59;5058100;28;20212;-69
2021/09/08 08:25:26;;;;;;;11.83;10.53;;;;;;;29.88;34.00;101719.38;5057888;28;20272;-68
2021/09/08 08:27:52;;;;;;;13.90;11.00;;;;;;;32.39;29.58;101704.03;5058151;28;20170;-68
2021/09/08 08:30:17;;;;;;;12.27;10.73;;;;;;;32.88;28.80;101711.50;5058105;28;20686;-68
2021/09/08 08:32:43;;;;;;;12.50;9.87;;;;;;;30.79;31.98;101707.84;5057983;28;20269;-69
2021/09/08 08:35:09;;;;;;;10.53;9.67;;;;;;;27.17;38.07;101715.84;5058144;28;20488;-68
2021/09/08 08:37:35;;;;;;;11.40;10.37;;;;;;;28.69;35.92;101706.88;5053548;28;20621;-68
2021/09/08 08:40:02;;;;;;;11.67;10.50;;;;;;;27.29;38.81;101711.78;5051513;28;20184;-69
2021/09/08 08:42:28;;;;;;;12.33;11.13;;;;;;;26.66;39.76;101714.50;5049301;28;20506;-69
2021/09/08 08:44:54;;;;;;;12.30;10.53;;;;;;;27.21;38.49;101706.75;5047665;28;20810;-70
2021/09/08 08:47:20;;;;;;;12.10;11.00;;;;;;;26.36;40.93;101712.19;5048273;28;20181;-69
2021/09/08 08:49:46;;;;;;;12.53;11.20;;;;;;;27.67;38.68;101702.91;5062238;28;20491;-68
2021/09/08 08:52:12;;;;;;;14.47;11.33;;;;;;;27.02;39.68;101704.03;5065278;28;20703;-68
2021/09/08 08:54:38;;;;;;;11.80;10.27;;;;;;;28.49;36.29;101702.50;5072263;28;20424;-68
2021/09/08 08:57:07;;;;;;;11.07;9.83;;;;;;;29.23;36.07;101698.69;5065760;28;20423;-69
2021/09/08 08:59:35;;;;;;;10.83;9.73;;;;;;;30.26;33.90;101703.81;5077969;28;20216;-69
2021/09/08 09:02:16;;;;;;;11.80;10.33;;;;;;;28.50;36.27;101703.41;5077248;28;20451;-68
2021/09/08 09:04:42;;;;;;;11.40;10.07;;;;;;;27.75;37.75;101707.91;5076567;28;20419;-68
2021/09/08 09:07:07;;;;;;;11.50;10.40;;;;;;;28.24;37.54;101705.56;5065994;28;20431;-68
2021/09/08 09:09:32;;;;;;;10.13;9.17;;;;;;;27.10;39.70;101703.66;5057132;28;20170;-67
2021/09/08 09:11:58;;;;;;;10.57;9.57;;;;;;;27.72;38.14;101698.22;5051362;28;20178;-67
2021/09/08 09:14:24;;;;;;;11.43;9.57;;;;;;;27.35;37.93;101699.91;5048908;28;20569;-68
2021/09/08 09:16:49;;;;;;;11.13;9.97;;;;;;;27.25;38.06;101701.25;5057518;28;20448;-67
2021/09/08 09:19:14;;;;;;;10.50;9.63;;;;;;;25.75;42.09;101703.00;5045130;28;20285;-68
2021/09/08 09:21:40;;;;;;;11.30;10.30;;;;;;;24.45;44.81;101702.25;5037502;28;20532;-69
2021/09/08 09:24:07;;;;;;;13.07;10.30;;;;;;;26.86;40.08;101698.47;5037246;28;20507;-67
2021/09/08 09:26:35;;;;;;;11.90;9.60;;;;;;;26.41;40.57;101698.59;5037566;28;20204;-68
2021/09/08 09:29:13;;;;;;;14.20;9.63;;;;;;;27.33;38.95;101691.94;5041668;28;20473;-68
2021/09/08 09:31:56;;;;;;;10.80;9.57;;;;;;;28.54;36.37;101697.78;5077525;28;20483;-68
2021/09/08 09:34:23;;;;;;;10.60;9.60;;;;;;;29.52;34.96;101692.69;5079019;28;20415;-71
2021/09/08 09:36:53;;;;;;;10.80;9.90;;;;;;;29.87;34.18;101680.00;5078819;28;20702;-68
2021/09/08 09:39:19;;;;;;;11.27;9.40;;;;;;;29.40;34.99;101691.56;5077872;28;20438;-69
2021/09/08 09:41:45;;;;;;;13.17;9.20;;;;;;;30.60;32.84;101678.47;5077635;28;20417;-68
2021/09/08 09:44:14;;;;;;;9.93;9.13;;;;;;;31.33;31.85;101671.38;5064385;28;20515;-67
2021/09/08 09:46:41;;;;;;;10.43;9.13;;;;;;;29.69;34.43;101681.03;5037367;28;20174;-68
2021/09/08 09:49:07;;;;;;;9.93;9.03;;;;;;;30.08;33.40;101677.03;5049082;28;20431;-68
2021/09/08 09:51:32;;;;;;;9.43;8.60;;;;;;;28.75;34.93;101669.97;5048781;28;20416;-67
2021/09/08 09:53:58;;;;;;;9.40;8.50;;;;;;;30.35;33.47;101669.16;5052690;28;20188;-68
2021/09/08 09:56:24;;;;;;;10.73;9.40;;;;;;;29.98;34.46;101676.69;5047677;28;20268;-68
2021/09/08 09:58:49;;;;;;;10.23;8.63;;;;;;;29.00;35.52;101672.22;5071427;28;20659;-68
2021/09/08 10:01:14;;;;;;;9.73;8.80;;;;;;;27.65;37.92;101670.84;5069455;28;20209;-67
2021/09/08 10:03:40;;;;;;;10.00;9.20;;;;;;;26.17;40.40;101674.66;5065262;28;20204;-68
2021/09/08 10:06:05;;;;;;;8.63;7.93;;;;;;;27.74;38.24;101669.53;5070756;28;20205;-68
2021/09/08 10:08:33;;;;;;;9.80;9.00;;;;;;;27.33;38.72;101673.19;5072737;28;20180;-69
2021/09/08 10:11:03;;;;;;;10.67;8.80;;;;;;;28.33;36.99;101662.19;5056112;28;20565;-68
2021/09/08 10:13:37;;;;;;;11.23;10.17;;;;;;;27.83;37.64;101662.84;5058785;28;20442;-68
2021/09/08 10:16:03;;;;;;;9.70;8.80;;;;;;;27.38;38.63;101660.47;5070757;28;20435;-72
2021/09/08 10:18:30;;;;;;;9.63;8.80;;;;;;;28.39;36.61;101663.72;5059922;28;20443;-70
2021/09/08 10:21:07;;;;;;;10.60;9.50;;;;;;;27.33;38.55;101657.13;5075789;28;20176;-69
2021/09/08 10:23:44;;;;;;;10.63;9.63;;;;;;;27.42;38.78;101652.31;5049095;28;20570;-69
2021/09/08 10:26:11;;;;;;;10.40;9.40;;;;;;;26.81;40.58;101646.97;5070366;28;20521;-69
2021/09/08 10:28:37;;;;;;;9.50;8.70;;;;;;;27.14;39.23;101646.38;5073345;28;20426;-69
2021/09/08 10:31:02;;;;;;;9.90;8.90;;;;;;;27.36;39.32;101640.03;5062036;28;20528;-69
2021/09/08 10:33:28;;;;;;;14.90;8.87;;;;;;;26.32;41.11;101639.25;5075970;28;20178;-69
2021/09/08 10:35:53;;;;;;;11.10;10.10;;;;;;;26.98;39.25;101634.66;5066717;28;20215;-68
2021/09/08 10:38:23;;;;;;;11.47;10.47;;;;;;;27.66;38.58;101634.22;5068451;28;20193;-69
2021/09/08 10:40:50;;;;;;;9.60;8.80;;;;;;;28.05;37.79;101627.88;5065315;28;20221;-68
2021/09/08 10:43:26;;;;;;;13.17;10.40;;;;;;;26.37;40.28;101623.00;5074993;28;20541;-69
2021/09/08 10:45:53;;;;;;;10.00;9.00;;;;;;;26.53;40.05;101631.25;5066475;28;20434;-69
2021/09/08 10:48:36;;;;;;;11.40;8.37;;;;;;;26.11;41.18;101627.66;5068572;28;20431;-68
2021/09/08 10:51:02;;;;;;;9.03;8.23;;;;;;;28.02;37.44;101610.13;5075443;28;20418;-68
2021/09/08 10:53:29;;;;;;;10.10;9.10;;;;;;;26.70;39.63;101622.50;5063387;28;20415;-69
2021/09/08 10:55:54;;;;;;;10.73;8.67;;;;;;;26.98;38.80;101614.13;5072261;28;20495;-68
2021/09/08 10:58:20;;;;;;;9.20;8.30;;;;;;;27.19;38.06;101620.28;5070670;28;20876;-68
2021/09/08 11:00:46;;;;;;;10.03;9.13;;;;;;;28.18;36.71;101603.97;5071590;28;20184;-68
2021/09/08 11:03:14;;;;;;;9.80;8.90;;;;;;;27.99;36.73;101598.66;5059530;28;20219;-69
2021/09/08 11:05:51;;;;;;;10.80;8.90;;;;;;;28.12;36.58;101604.28;5059658;28;20503;-68